Terminal Aerodrome Forecast
Issued by NWS Sioux Falls, SD

Home | Current Version | Previous Version | Text Only | Print | Product List | Glossary On
Versions: 1 2 3 4 5 6 7 8 9 10 11 12 13 14
000
FTUS43 KFSD 061123
TAFFSD
TAF
KFSD 061123Z 0612/0712 23005KT P6SM SCT100
     FM061500 28011KT P6SM SCT120
     FM062200 27006KT P6SM BKN120
     FM070100 19005KT P6SM BKN100
     FM070400 28009KT P6SM BKN100=

USA.gov is the U.S. government's official web portal to all federal, state and local government web resources and services.